JA384X ROMY-RJFU
Flight info
| Callsign | JA384X |
|---|---|
| Flight time | 1h 27m |
| Altitude | 45000 |
| Route | FREED Y57 AZAMA Y579 ONC Y45 BOMAP Y25 GOKYO CF32Y CHARA |
| Aircraft | C700/M-SBDGHM1RWXY/LB2 |
Departure
| Time | 2026-05-06 10:50 |
|---|---|
| Airport | Miyako Airport (ROMY) |
Arrival
| Time | 2026-05-06 12:18 |
|---|---|
| Airport | Nagasaki Airport (RJFU) |
| Time | Latitude | Longitude | Altitude | Speed | Heading |
|---|---|---|---|---|---|
| 2026-05-06 08:04 | 24.78059 | 125.29752 | 142 ft | 0 kts | 130° |
| 2026-05-06 10:40 | 24.78064 | 125.29744 | 142 ft | 2 kts | 129° |
| 2026-05-06 10:40 | 24.78075 | 125.29731 | 142 ft | 2 kts | 131° |
| 2026-05-06 10:41 | 24.78086 | 125.29717 | 142 ft | 2 kts | 134° |
| 2026-05-06 10:41 | 24.78098 | 125.29705 | 142 ft | 2 kts | 142° |
| 2026-05-06 10:41 | 24.78112 | 125.29698 | 142 ft | 2 kts | 190° |
| 2026-05-06 10:41 | 24.78115 | 125.29698 | 142 ft | 0 kts | 197° |
| 2026-05-06 10:42 | 24.78107 | 125.29695 | 142 ft | 4 kts | 204° |
| 2026-05-06 10:42 | 24.78062 | 125.29658 | 141 ft | 13 kts | 220° |
| 2026-05-06 10:42 | 24.77994 | 125.29576 | 140 ft | 16 kts | 266° |
| 2026-05-06 10:43 | 24.78057 | 125.29464 | 139 ft | 19 kts | 309° |
| 2026-05-06 10:43 | 24.78105 | 125.29367 | 139 ft | 16 kts | 240° |
| 2026-05-06 10:43 | 24.78010 | 125.29279 | 137 ft | 21 kts | 217° |
| 2026-05-06 10:44 | 24.77726 | 125.29042 | 127 ft | 30 kts | 218° |
| 2026-05-06 10:44 | 24.77612 | 125.28949 | 129 ft | 4 kts | 171° |
| 2026-05-06 10:44 | 24.77587 | 125.28963 | 128 ft | 5 kts | 176° |
| 2026-05-06 10:44 | 24.77575 | 125.28928 | 128 ft | 7 kts | 302° |
| 2026-05-06 10:45 | 24.77606 | 125.28934 | 129 ft | 0 kts | 41° |
| 2026-05-06 10:45 | 24.77812 | 125.29110 | 132 ft | 94 kts | 38° |
| 2026-05-06 10:45 | 24.78447 | 125.29674 | 145 ft | 72 kts | 37° |
| 2026-05-06 10:45 | 24.78528 | 125.29741 | 146 ft | 0 kts | 37° |
| 2026-05-06 10:46 | 24.78539 | 125.29741 | 146 ft | 4 kts | 339° |
| 2026-05-06 10:46 | 24.78513 | 125.29709 | 146 ft | 13 kts | 208° |
| 2026-05-06 10:46 | 24.78379 | 125.29607 | 144 ft | 34 kts | 220° |
| 2026-05-06 10:47 | 24.78145 | 125.29401 | 140 ft | 52 kts | 218° |
| 2026-05-06 10:47 | 24.77835 | 125.29133 | 133 ft | 58 kts | 219° |
| 2026-05-06 10:47 | 24.77618 | 125.28961 | 125 ft | 23 kts | 194° |
| 2026-05-06 10:47 | 24.77594 | 125.28950 | 128 ft | 0 kts | 222° |
| 2026-05-06 10:48 | 24.77593 | 125.28949 | 128 ft | 0 kts | 222° |
| 2026-05-06 10:48 | 24.77591 | 125.28947 | 128 ft | 1 kts | 230° |
| 2026-05-06 10:48 | 24.77590 | 125.28943 | 126 ft | 0 kts | 250° |
| 2026-05-06 10:48 | 24.77590 | 125.28941 | 126 ft | 0 kts | 259° |
| 2026-05-06 10:49 | 24.77590 | 125.28940 | 126 ft | 2 kts | 260° |
| 2026-05-06 10:49 | 24.77612 | 125.28933 | 125 ft | 8 kts | 46° |
| 2026-05-06 10:49 | 24.77705 | 125.29012 | 130 ft | 47 kts | 37° |
| 2026-05-06 10:50 | 24.78260 | 125.29465 | 182 ft | 146 kts | 31° |
| 2026-05-06 10:50 | 24.79262 | 125.30082 | 1001 ft | 171 kts | 30° |
| 2026-05-06 10:50 | 24.80277 | 125.30660 | 2119 ft | 153 kts | 26° |
| 2026-05-06 10:50 | 24.81200 | 125.31158 | 2872 ft | 152 kts | 25° |
| 2026-05-06 10:51 | 24.82207 | 125.31698 | 3828 ft | 169 kts | 25° |
| 2026-05-06 10:51 | 24.83283 | 125.32273 | 4908 ft | 179 kts | 24° |
| 2026-05-06 10:51 | 24.84420 | 125.32878 | 6042 ft | 183 kts | 22° |
| 2026-05-06 10:51 | 24.85572 | 125.33487 | 7156 ft | 184 kts | 21° |
| 2026-05-06 10:52 | 24.86737 | 125.34100 | 8302 ft | 190 kts | 21° |
| 2026-05-06 10:52 | 24.87978 | 125.34745 | 9632 ft | 203 kts | 21° |
| 2026-05-06 10:52 | 24.89288 | 125.35420 | 10987 ft | 212 kts | 20° |
| 2026-05-06 10:52 | 24.90641 | 125.36109 | 12373 ft | 217 kts | 19° |
| 2026-05-06 10:53 | 24.92026 | 125.36810 | 13799 ft | 220 kts | 18° |
| 2026-05-06 10:53 | 24.93417 | 125.37511 | 15093 ft | 219 kts | 18° |
| 2026-05-06 10:53 | 24.94791 | 125.38205 | 16442 ft | 215 kts | 17° |
| 2026-05-06 10:53 | 24.96131 | 125.38885 | 17808 ft | 209 kts | 17° |
| 2026-05-06 10:54 | 24.97428 | 125.39549 | 19040 ft | 202 kts | 16° |
| 2026-05-06 10:54 | 24.98672 | 125.40195 | 20173 ft | 194 kts | 15° |
| 2026-05-06 10:54 | 24.99866 | 125.40823 | 21276 ft | 186 kts | 15° |
| 2026-05-06 10:54 | 25.01010 | 125.41435 | 22332 ft | 179 kts | 15° |
| 2026-05-06 10:55 | 25.02103 | 125.42031 | 23338 ft | 172 kts | 14° |
| 2026-05-06 10:55 | 25.02806 | 125.42418 | 23899 ft | 168 kts | 14° |
| 2026-05-06 10:55 | 25.03837 | 125.42993 | 24646 ft | 164 kts | 13° |
| 2026-05-06 10:55 | 25.05311 | 125.43775 | 25003 ft | 198 kts | 13° |
| 2026-05-06 10:56 | 25.06481 | 125.44362 | 26163 ft | 169 kts | 12° |
| 2026-05-06 10:56 | 25.07184 | 125.44736 | 26781 ft | 166 kts | 12° |
| 2026-05-06 10:56 | 25.08254 | 125.45306 | 27285 ft | 177 kts | 12° |
| 2026-05-06 10:56 | 25.09421 | 125.45907 | 27705 ft | 193 kts | 13° |
| 2026-05-06 10:57 | 25.10500 | 125.47003 | 28126 ft | 239 kts | 49° |
| 2026-05-06 10:57 | 25.11196 | 125.48775 | 28601 ft | 262 kts | 56° |
| 2026-05-06 10:57 | 25.11865 | 125.50719 | 29061 ft | 280 kts | 58° |
| 2026-05-06 10:57 | 25.12565 | 125.52760 | 29491 ft | 296 kts | 58° |
| 2026-05-06 10:58 | 25.13334 | 125.54943 | 29933 ft | 314 kts | 58° |
| 2026-05-06 10:58 | 25.14152 | 125.57255 | 30326 ft | 333 kts | 58° |
| 2026-05-06 10:58 | 25.15009 | 125.59703 | 30696 ft | 351 kts | 59° |
| 2026-05-06 10:58 | 25.15909 | 125.62277 | 31072 ft | 368 kts | 60° |
| 2026-05-06 10:59 | 25.16851 | 125.64971 | 31448 ft | 384 kts | 60° |
| 2026-05-06 10:59 | 25.17835 | 125.67778 | 31829 ft | 400 kts | 61° |
| 2026-05-06 10:59 | 25.18858 | 125.70700 | 32211 ft | 415 kts | 62° |
| 2026-05-06 10:59 | 25.19913 | 125.73721 | 32596 ft | 429 kts | 62° |
| 2026-05-06 11:00 | 25.21002 | 125.76840 | 33027 ft | 441 kts | 61° |
| 2026-05-06 11:00 | 25.22127 | 125.80049 | 33421 ft | 454 kts | 63° |
| 2026-05-06 11:00 | 25.23272 | 125.83338 | 33819 ft | 465 kts | 63° |
| 2026-05-06 11:00 | 25.24443 | 125.86711 | 34192 ft | 475 kts | 63° |
| 2026-05-06 11:01 | 25.25644 | 125.90153 | 34542 ft | 485 kts | 63° |
| 2026-05-06 11:01 | 25.26867 | 125.93661 | 34892 ft | 494 kts | 64° |
| 2026-05-06 11:01 | 25.28110 | 125.97235 | 35247 ft | 503 kts | 64° |
| 2026-05-06 11:01 | 25.29372 | 126.00874 | 35617 ft | 510 kts | 64° |
| 2026-05-06 11:02 | 25.30653 | 126.04564 | 35970 ft | 518 kts | 64° |
| 2026-05-06 11:02 | 25.31952 | 126.08307 | 36339 ft | 525 kts | 64° |
| 2026-05-06 11:02 | 25.33244 | 126.12047 | 36713 ft | 509 kts | 64° |
| 2026-05-06 11:02 | 25.34466 | 126.15602 | 37070 ft | 496 kts | 64° |
| 2026-05-06 11:03 | 25.35693 | 126.19136 | 37464 ft | 488 kts | 64° |
| 2026-05-06 11:03 | 25.36897 | 126.22602 | 37844 ft | 476 kts | 64° |
| 2026-05-06 11:03 | 25.38069 | 126.26000 | 38237 ft | 474 kts | 64° |
| 2026-05-06 11:03 | 25.39250 | 126.29418 | 38631 ft | 478 kts | 64° |
| 2026-05-06 11:04 | 25.40438 | 126.32863 | 38978 ft | 481 kts | 64° |
| 2026-05-06 11:04 | 25.41630 | 126.36328 | 39312 ft | 483 kts | 64° |
| 2026-05-06 11:04 | 25.42828 | 126.39811 | 39654 ft | 485 kts | 65° |
| 2026-05-06 11:04 | 25.44031 | 126.43310 | 39999 ft | 486 kts | 65° |
| 2026-05-06 11:05 | 25.45234 | 126.46813 | 40355 ft | 487 kts | 65° |
| 2026-05-06 11:05 | 25.46438 | 126.50323 | 40721 ft | 487 kts | 65° |
| 2026-05-06 11:05 | 25.47692 | 126.53809 | 41079 ft | 485 kts | 61° |
| 2026-05-06 11:05 | 25.49320 | 126.57050 | 41472 ft | 480 kts | 54° |
| 2026-05-06 11:06 | 25.51062 | 126.60196 | 41854 ft | 479 kts | 54° |
| 2026-05-06 11:06 | 25.52769 | 126.63303 | 42237 ft | 477 kts | 54° |
| 2026-05-06 11:06 | 25.54486 | 126.66442 | 42623 ft | 475 kts | 54° |
| 2026-05-06 11:06 | 25.56200 | 126.69567 | 43018 ft | 472 kts | 54° |
| 2026-05-06 11:07 | 25.57907 | 126.72673 | 43418 ft | 469 kts | 54° |
| 2026-05-06 11:07 | 25.59596 | 126.75754 | 43824 ft | 466 kts | 54° |
| 2026-05-06 11:07 | 25.61273 | 126.78818 | 44240 ft | 463 kts | 54° |
| 2026-05-06 11:07 | 25.62934 | 126.81855 | 44656 ft | 459 kts | 54° |
| 2026-05-06 11:08 | 25.64580 | 126.84863 | 44993 ft | 455 kts | 54° |
| 2026-05-06 11:08 | 25.67905 | 126.90938 | 45016 ft | 466 kts | 55° |
| 2026-05-06 11:09 | 25.71272 | 126.97114 | 45026 ft | 475 kts | 55° |
| 2026-05-06 11:09 | 25.74733 | 127.03465 | 45026 ft | 485 kts | 55° |
| 2026-05-06 11:10 | 25.78254 | 127.09936 | 45028 ft | 493 kts | 55° |
| 2026-05-06 11:10 | 25.81813 | 127.16485 | 45029 ft | 502 kts | 55° |
| 2026-05-06 11:11 | 25.85443 | 127.23173 | 45027 ft | 509 kts | 55° |
| 2026-05-06 11:11 | 25.89118 | 127.29959 | 45025 ft | 516 kts | 56° |
| 2026-05-06 11:12 | 25.92821 | 127.36808 | 45029 ft | 516 kts | 56° |
| 2026-05-06 11:12 | 25.96499 | 127.43623 | 45026 ft | 512 kts | 56° |
| 2026-05-06 11:13 | 26.00149 | 127.50393 | 45015 ft | 509 kts | 56° |
| 2026-05-06 11:13 | 26.03757 | 127.57098 | 44990 ft | 507 kts | 56° |
| 2026-05-06 11:14 | 26.07386 | 127.63847 | 44988 ft | 509 kts | 56° |
| 2026-05-06 11:14 | 26.11035 | 127.70650 | 44992 ft | 512 kts | 56° |
| 2026-05-06 11:15 | 26.14821 | 127.77302 | 45003 ft | 509 kts | 48° |
| 2026-05-06 11:15 | 26.19856 | 127.82656 | 45003 ft | 496 kts | 31° |
| 2026-05-06 11:16 | 26.25664 | 127.86754 | 45013 ft | 491 kts | 27° |
| 2026-05-06 11:16 | 26.31445 | 127.90802 | 45016 ft | 490 kts | 27° |
| 2026-05-06 11:17 | 26.37204 | 127.94823 | 45009 ft | 492 kts | 27° |
| 2026-05-06 11:17 | 26.43009 | 127.98892 | 45004 ft | 494 kts | 27° |
| 2026-05-06 11:18 | 26.48849 | 128.02983 | 45015 ft | 495 kts | 27° |
| 2026-05-06 11:18 | 26.54655 | 128.07060 | 45027 ft | 495 kts | 28° |
| 2026-05-06 11:19 | 26.60487 | 128.11158 | 45030 ft | 493 kts | 28° |
| 2026-05-06 11:19 | 26.66278 | 128.15233 | 45026 ft | 491 kts | 28° |
| 2026-05-06 11:20 | 26.72050 | 128.19297 | 45016 ft | 489 kts | 28° |
| 2026-05-06 11:20 | 26.77813 | 128.23363 | 45022 ft | 490 kts | 28° |
| 2026-05-06 11:21 | 26.83568 | 128.27426 | 45025 ft | 493 kts | 28° |
| 2026-05-06 11:21 | 26.89380 | 128.31536 | 45025 ft | 495 kts | 28° |
| 2026-05-06 11:22 | 26.95204 | 128.35659 | 45027 ft | 494 kts | 28° |
| 2026-05-06 11:22 | 27.01013 | 128.39776 | 45024 ft | 492 kts | 28° |
| 2026-05-06 11:23 | 27.06782 | 128.43870 | 45032 ft | 490 kts | 28° |
| 2026-05-06 11:23 | 27.12530 | 128.47954 | 45040 ft | 489 kts | 28° |
| 2026-05-06 11:24 | 27.18279 | 128.52042 | 45036 ft | 490 kts | 28° |
| 2026-05-06 11:24 | 27.24013 | 128.56128 | 45039 ft | 492 kts | 28° |
| 2026-05-06 11:25 | 27.29809 | 128.60261 | 45043 ft | 494 kts | 28° |
| 2026-05-06 11:25 | 27.35628 | 128.64416 | 45041 ft | 496 kts | 28° |
| 2026-05-06 11:26 | 27.41458 | 128.68581 | 45030 ft | 496 kts | 28° |
| 2026-05-06 11:26 | 27.47681 | 128.71754 | 45018 ft | 489 kts | 16° |
| 2026-05-06 11:27 | 27.54072 | 128.74451 | 45026 ft | 490 kts | 17° |
| 2026-05-06 11:27 | 27.60432 | 128.77150 | 45031 ft | 491 kts | 16° |
| 2026-05-06 11:28 | 27.66834 | 128.79860 | 45042 ft | 491 kts | 16° |
| 2026-05-06 11:28 | 27.73241 | 128.82583 | 45043 ft | 492 kts | 16° |
| 2026-05-06 11:29 | 27.79608 | 128.85288 | 45047 ft | 492 kts | 16° |
| 2026-05-06 11:29 | 27.86020 | 128.88018 | 45044 ft | 492 kts | 16° |
| 2026-05-06 11:30 | 27.92429 | 128.90752 | 45039 ft | 492 kts | 17° |
| 2026-05-06 11:30 | 27.98822 | 128.93526 | 45043 ft | 491 kts | 17° |
| 2026-05-06 11:31 | 28.05210 | 128.96282 | 45038 ft | 491 kts | 17° |
| 2026-05-06 11:31 | 28.11581 | 128.99043 | 45041 ft | 490 kts | 17° |
| 2026-05-06 11:32 | 28.17965 | 129.01810 | 45041 ft | 490 kts | 17° |
| 2026-05-06 11:32 | 28.24298 | 129.04559 | 45050 ft | 490 kts | 17° |
| 2026-05-06 11:33 | 28.30665 | 129.07327 | 45045 ft | 490 kts | 17° |
| 2026-05-06 11:33 | 28.37037 | 129.10100 | 45042 ft | 490 kts | 17° |
| 2026-05-06 11:34 | 28.43413 | 129.12879 | 45035 ft | 491 kts | 17° |
| 2026-05-06 11:34 | 28.49795 | 129.15663 | 45048 ft | 491 kts | 17° |
| 2026-05-06 11:35 | 28.56185 | 129.18455 | 45047 ft | 492 kts | 17° |
| 2026-05-06 11:35 | 28.62542 | 129.21236 | 45049 ft | 493 kts | 17° |
| 2026-05-06 11:36 | 28.68951 | 129.24043 | 45051 ft | 493 kts | 17° |
| 2026-05-06 11:36 | 28.75373 | 129.26860 | 45047 ft | 494 kts | 17° |
| 2026-05-06 11:37 | 28.81806 | 129.29686 | 45048 ft | 495 kts | 17° |
| 2026-05-06 11:37 | 28.88244 | 129.32517 | 45049 ft | 496 kts | 17° |
| 2026-05-06 11:38 | 28.94651 | 129.35338 | 45035 ft | 496 kts | 18° |
| 2026-05-06 11:38 | 29.01081 | 129.38174 | 45032 ft | 494 kts | 18° |
| 2026-05-06 11:39 | 29.07493 | 129.41005 | 45037 ft | 493 kts | 18° |
| 2026-05-06 11:39 | 29.13904 | 129.43840 | 45051 ft | 492 kts | 18° |
| 2026-05-06 11:40 | 29.20289 | 129.46666 | 45047 ft | 492 kts | 18° |
| 2026-05-06 11:40 | 29.26644 | 129.49483 | 45048 ft | 492 kts | 18° |
| 2026-05-06 11:41 | 29.33036 | 129.52321 | 45050 ft | 493 kts | 18° |
| 2026-05-06 11:41 | 29.39430 | 129.55163 | 45051 ft | 493 kts | 18° |
| 2026-05-06 11:42 | 29.45843 | 129.58017 | 45044 ft | 493 kts | 18° |
| 2026-05-06 11:42 | 29.52206 | 129.60854 | 45056 ft | 494 kts | 18° |
| 2026-05-06 11:43 | 29.58635 | 129.63723 | 45058 ft | 495 kts | 18° |
| 2026-05-06 11:43 | 29.63981 | 129.66113 | 45059 ft | 496 kts | 18° |
| 2026-05-06 11:44 | 29.74701 | 129.70911 | 45058 ft | 497 kts | 18° |
| 2026-05-06 11:44 | 29.80117 | 129.73340 | 45062 ft | 498 kts | 18° |
| 2026-05-06 11:45 | 29.86545 | 129.76226 | 45068 ft | 498 kts | 18° |
| 2026-05-06 11:45 | 29.92983 | 129.79121 | 45056 ft | 495 kts | 18° |
| 2026-05-06 11:46 | 29.99406 | 129.81901 | 45039 ft | 490 kts | 12° |
| 2026-05-06 11:46 | 30.06104 | 129.83065 | 45071 ft | 486 kts | 1° |
| 2026-05-06 11:47 | 30.12831 | 129.83789 | 45059 ft | 489 kts | 1° |
| 2026-05-06 11:47 | 30.19610 | 129.84525 | 45061 ft | 488 kts | 1° |
| 2026-05-06 11:48 | 30.26389 | 129.85255 | 44916 ft | 491 kts | 1° |
| 2026-05-06 11:48 | 30.29807 | 129.85626 | 44519 ft | 494 kts | 1° |
| 2026-05-06 11:48 | 30.33179 | 129.85994 | 44091 ft | 490 kts | 1° |
| 2026-05-06 11:49 | 30.36545 | 129.86362 | 43658 ft | 480 kts | 1° |
| 2026-05-06 11:49 | 30.39828 | 129.86720 | 43226 ft | 467 kts | 1° |
| 2026-05-06 11:49 | 30.43028 | 129.87066 | 42799 ft | 455 kts | 0° |
| 2026-05-06 11:49 | 30.46153 | 129.87404 | 42381 ft | 447 kts | 0° |
| 2026-05-06 11:50 | 30.49235 | 129.87738 | 41990 ft | 443 kts | 0° |
| 2026-05-06 11:50 | 30.52310 | 129.88071 | 41550 ft | 447 kts | 0° |
| 2026-05-06 11:50 | 30.55455 | 129.88408 | 41050 ft | 460 kts | 0° |
| 2026-05-06 11:50 | 30.58693 | 129.88759 | 40573 ft | 474 kts | 0° |
| 2026-05-06 11:51 | 30.62015 | 129.89126 | 40113 ft | 484 kts | 0° |
| 2026-05-06 11:51 | 30.65384 | 129.89498 | 39649 ft | 487 kts | 0° |
| 2026-05-06 11:51 | 30.68773 | 129.89868 | 39195 ft | 488 kts | 0° |
| 2026-05-06 11:51 | 30.72104 | 129.90230 | 38748 ft | 487 kts | 0° |
| 2026-05-06 11:52 | 30.75481 | 129.90599 | 38209 ft | 487 kts | 0° |
| 2026-05-06 11:52 | 30.78856 | 129.90970 | 37679 ft | 486 kts | 0° |
| 2026-05-06 11:52 | 30.82238 | 129.91341 | 37160 ft | 485 kts | 0° |
| 2026-05-06 11:52 | 30.85591 | 129.91708 | 36656 ft | 483 kts | 0° |
| 2026-05-06 11:53 | 30.88939 | 129.92075 | 36175 ft | 482 kts | 0° |
| 2026-05-06 11:53 | 30.92276 | 129.92441 | 35693 ft | 479 kts | 0° |
| 2026-05-06 11:53 | 30.95544 | 129.92801 | 35223 ft | 476 kts | 0° |
| 2026-05-06 11:53 | 30.98836 | 129.93163 | 34756 ft | 474 kts | 0° |
| 2026-05-06 11:54 | 31.02116 | 129.93523 | 34296 ft | 472 kts | 0° |
| 2026-05-06 11:54 | 31.05401 | 129.93883 | 33799 ft | 473 kts | 0° |
| 2026-05-06 11:54 | 31.08679 | 129.94244 | 33285 ft | 474 kts | 0° |
| 2026-05-06 11:54 | 31.11970 | 129.94607 | 32800 ft | 474 kts | 1° |
| 2026-05-06 11:55 | 31.15245 | 129.94971 | 32301 ft | 470 kts | 1° |
| 2026-05-06 11:55 | 31.18490 | 129.95329 | 31812 ft | 466 kts | 1° |
| 2026-05-06 11:55 | 31.21720 | 129.95684 | 31284 ft | 464 kts | 1° |
| 2026-05-06 11:55 | 31.24897 | 129.96036 | 30765 ft | 452 kts | 1° |
| 2026-05-06 11:56 | 31.27975 | 129.96381 | 30245 ft | 436 kts | 1° |
| 2026-05-06 11:56 | 31.30910 | 129.96634 | 29683 ft | 421 kts | 1° |
| 2026-05-06 11:56 | 31.33771 | 129.96850 | 29095 ft | 403 kts | 2° |
| 2026-05-06 11:56 | 31.36529 | 129.97080 | 28511 ft | 392 kts | 2° |
| 2026-05-06 11:57 | 31.39237 | 129.97298 | 27942 ft | 389 kts | 2° |
| 2026-05-06 11:57 | 31.41947 | 129.97507 | 27368 ft | 394 kts | 2° |
| 2026-05-06 11:57 | 31.44728 | 129.97722 | 26735 ft | 404 kts | 2° |
| 2026-05-06 11:57 | 31.47520 | 129.97947 | 26172 ft | 398 kts | 2° |
| 2026-05-06 11:58 | 31.50243 | 129.98168 | 25596 ft | 383 kts | 2° |
| 2026-05-06 11:58 | 31.52849 | 129.98374 | 25038 ft | 368 kts | 2° |
| 2026-05-06 11:58 | 31.55362 | 129.98571 | 24486 ft | 356 kts | 2° |
| 2026-05-06 11:58 | 31.57778 | 129.98762 | 23952 ft | 349 kts | 3° |
| 2026-05-06 11:59 | 31.60194 | 129.98954 | 23375 ft | 348 kts | 3° |
| 2026-05-06 11:59 | 31.62618 | 129.99147 | 22750 ft | 351 kts | 3° |
| 2026-05-06 11:59 | 31.65072 | 129.99341 | 22142 ft | 356 kts | 3° |
| 2026-05-06 11:59 | 31.67569 | 129.99540 | 21545 ft | 361 kts | 3° |
| 2026-05-06 12:00 | 31.70094 | 129.99741 | 20960 ft | 365 kts | 3° |
| 2026-05-06 12:00 | 31.72634 | 129.99944 | 20386 ft | 366 kts | 3° |
| 2026-05-06 12:00 | 31.75148 | 130.00144 | 19829 ft | 366 kts | 3° |
| 2026-05-06 12:00 | 31.77691 | 130.00347 | 19275 ft | 366 kts | 4° |
| 2026-05-06 12:01 | 31.80234 | 130.00550 | 18727 ft | 366 kts | 4° |
| 2026-05-06 12:01 | 31.82781 | 130.00753 | 18166 ft | 367 kts | 4° |
| 2026-05-06 12:01 | 31.85335 | 130.00958 | 17554 ft | 369 kts | 3° |
| 2026-05-06 12:01 | 31.87895 | 130.01162 | 16947 ft | 366 kts | 3° |
| 2026-05-06 12:02 | 31.90396 | 130.01363 | 16350 ft | 354 kts | 3° |
| 2026-05-06 12:02 | 31.92816 | 130.01557 | 15770 ft | 344 kts | 2° |
| 2026-05-06 12:02 | 31.95181 | 130.01746 | 15195 ft | 338 kts | 2° |
| 2026-05-06 12:02 | 31.97530 | 130.01933 | 14624 ft | 337 kts | 2° |
| 2026-05-06 12:03 | 31.99841 | 130.02118 | 14061 ft | 338 kts | 1° |
| 2026-05-06 12:03 | 32.02193 | 130.02306 | 13365 ft | 339 kts | 1° |
| 2026-05-06 12:03 | 32.04545 | 130.02495 | 12657 ft | 337 kts | 2° |
| 2026-05-06 12:03 | 32.06873 | 130.02683 | 11964 ft | 333 kts | 2° |
| 2026-05-06 12:04 | 32.09175 | 130.02868 | 11287 ft | 330 kts | 2° |
| 2026-05-06 12:04 | 32.11458 | 130.03051 | 10624 ft | 328 kts | 2° |
| 2026-05-06 12:04 | 32.13740 | 130.03232 | 9975 ft | 328 kts | 2° |
| 2026-05-06 12:04 | 32.16012 | 130.03418 | 9255 ft | 325 kts | 3° |
| 2026-05-06 12:05 | 32.18244 | 130.03600 | 8550 ft | 317 kts | 3° |
| 2026-05-06 12:05 | 32.20398 | 130.03774 | 7871 ft | 310 kts | 3° |
| 2026-05-06 12:05 | 32.22537 | 130.03945 | 7185 ft | 305 kts | 4° |
| 2026-05-06 12:05 | 32.24644 | 130.04115 | 6521 ft | 301 kts | 4° |
| 2026-05-06 12:06 | 32.26712 | 130.04283 | 5976 ft | 293 kts | 4° |
| 2026-05-06 12:06 | 32.28689 | 130.04442 | 5722 ft | 278 kts | 4° |
| 2026-05-06 12:06 | 32.30595 | 130.04596 | 5464 ft | 272 kts | 4° |
| 2026-05-06 12:06 | 32.32462 | 130.04748 | 5206 ft | 267 kts | 4° |
| 2026-05-06 12:07 | 32.34308 | 130.04895 | 4956 ft | 262 kts | 4° |
| 2026-05-06 12:07 | 32.36094 | 130.05040 | 4703 ft | 254 kts | 5° |
| 2026-05-06 12:07 | 32.37818 | 130.05181 | 4492 ft | 238 kts | 4° |
| 2026-05-06 12:07 | 32.39477 | 130.05316 | 4260 ft | 245 kts | 5° |
| 2026-05-06 12:08 | 32.41182 | 130.05455 | 4024 ft | 249 kts | 5° |
| 2026-05-06 12:08 | 32.42866 | 130.05591 | 3757 ft | 240 kts | 5° |
| 2026-05-06 12:08 | 32.44569 | 130.05728 | 3507 ft | 247 kts | 5° |
| 2026-05-06 12:08 | 32.46277 | 130.05867 | 3263 ft | 246 kts | 5° |
| 2026-05-06 12:09 | 32.47987 | 130.06007 | 3009 ft | 245 kts | 5° |
| 2026-05-06 12:09 | 32.49689 | 130.06145 | 2796 ft | 244 kts | 5° |
| 2026-05-06 12:09 | 32.51355 | 130.06280 | 2769 ft | 244 kts | 5° |
| 2026-05-06 12:09 | 32.53054 | 130.06420 | 2747 ft | 245 kts | 4° |
| 2026-05-06 12:10 | 32.54755 | 130.06557 | 2718 ft | 244 kts | 4° |
| 2026-05-06 12:10 | 32.56449 | 130.06694 | 2693 ft | 244 kts | 5° |
| 2026-05-06 12:10 | 32.58147 | 130.06831 | 2668 ft | 244 kts | 5° |
| 2026-05-06 12:10 | 32.59840 | 130.06970 | 2649 ft | 244 kts | 4° |
| 2026-05-06 12:11 | 32.61541 | 130.07016 | 2630 ft | 243 kts | 359° |
| 2026-05-06 12:11 | 32.63236 | 130.06979 | 2632 ft | 244 kts | 360° |
| 2026-05-06 12:11 | 32.64936 | 130.06955 | 2630 ft | 244 kts | 360° |
| 2026-05-06 12:11 | 32.66638 | 130.06935 | 2633 ft | 244 kts | 360° |
| 2026-05-06 12:12 | 32.68344 | 130.06912 | 2635 ft | 245 kts | 360° |
| 2026-05-06 12:12 | 32.70047 | 130.06887 | 2639 ft | 245 kts | 360° |
| 2026-05-06 12:12 | 32.71750 | 130.06863 | 2639 ft | 245 kts | 360° |
| 2026-05-06 12:12 | 32.73435 | 130.06839 | 2639 ft | 245 kts | 360° |
| 2026-05-06 12:13 | 32.75156 | 130.06817 | 2635 ft | 244 kts | 359° |
| 2026-05-06 12:13 | 32.76814 | 130.06560 | 2614 ft | 245 kts | 342° |
| 2026-05-06 12:13 | 32.78314 | 130.05615 | 2620 ft | 244 kts | 322° |
| 2026-05-06 12:13 | 32.79581 | 130.04284 | 2626 ft | 243 kts | 317° |
| 2026-05-06 12:14 | 32.80808 | 130.02990 | 2553 ft | 227 kts | 317° |
| 2026-05-06 12:14 | 32.81905 | 130.01801 | 2296 ft | 206 kts | 317° |
| 2026-05-06 12:14 | 32.82902 | 130.00748 | 2021 ft | 168 kts | 318° |
| 2026-05-06 12:14 | 32.83693 | 129.99895 | 1856 ft | 150 kts | 317° |
| 2026-05-06 12:15 | 32.84434 | 129.99102 | 1652 ft | 138 kts | 317° |
| 2026-05-06 12:15 | 32.85125 | 129.98368 | 1468 ft | 133 kts | 317° |
| 2026-05-06 12:15 | 32.85807 | 129.97636 | 1301 ft | 131 kts | 317° |
| 2026-05-06 12:15 | 32.86485 | 129.96908 | 1135 ft | 131 kts | 317° |
| 2026-05-06 12:16 | 32.87162 | 129.96188 | 972 ft | 131 kts | 318° |
| 2026-05-06 12:16 | 32.87836 | 129.95466 | 804 ft | 130 kts | 318° |
| 2026-05-06 12:16 | 32.88504 | 129.94749 | 636 ft | 128 kts | 318° |
| 2026-05-06 12:16 | 32.89164 | 129.94043 | 465 ft | 127 kts | 318° |
| 2026-05-06 12:17 | 32.89816 | 129.93351 | 298 ft | 127 kts | 318° |
| 2026-05-06 12:17 | 32.90474 | 129.92646 | 127 ft | 126 kts | 317° |
| 2026-05-06 12:17 | 32.91103 | 129.91962 | 9 ft | 108 kts | 317° |
| 2026-05-06 12:17 | 32.91511 | 129.91515 | 10 ft | 52 kts | 317° |
| 2026-05-06 12:18 | 32.91734 | 129.91282 | 6 ft | 38 kts | 320° |
| 2026-05-06 12:18 | 32.91919 | 129.91106 | 9 ft | 23 kts | 327° |
| 2026-05-06 12:18 | 32.92002 | 129.91134 | 7 ft | 13 kts | 62° |
| 2026-05-06 12:18 | 32.92035 | 129.91196 | 5 ft | 10 kts | 81° |
| 2026-05-06 12:19 | 32.92002 | 129.91288 | 5 ft | 15 kts | 132° |
| 2026-05-06 12:19 | 32.91911 | 129.91394 | 2 ft | 21 kts | 138° |
| 2026-05-06 12:19 | 32.91820 | 129.91488 | 4 ft | 4 kts | 141° |
| 2026-05-06 12:19 | 32.91815 | 129.91527 | 5 ft | 7 kts | 54° |
| 2026-05-06 12:20 | 32.91855 | 129.91580 | 6 ft | 8 kts | 48° |
| 2026-05-06 12:20 | 32.91893 | 129.91627 | 7 ft | 6 kts | 30° |
| 2026-05-06 12:20 | 32.91915 | 129.91619 | 7 ft | 0 kts | 314° |